createdAt,value
2019-01-04T00:01:34.906Z,9.50
2019-01-04T00:04:40.495Z,7.33
2019-01-04T00:07:46.210Z,7.10
2019-01-04T00:10:51.782Z,7.57
2019-01-04T00:13:57.427Z,10.27
2019-01-04T00:17:03.099Z,8.87
2019-01-04T00:20:08.954Z,7.83
2019-01-04T00:23:15.663Z,8.37
2019-01-04T00:26:21.384Z,9.53
2019-01-04T00:29:27.003Z,8.60
2019-01-04T00:32:32.595Z,8.17
2019-01-04T00:35:38.182Z,6.33
2019-01-04T00:38:43.894Z,6.87
2019-01-04T00:41:49.510Z,8.67
2019-01-04T00:44:55.267Z,6.37
2019-01-04T00:48:00.881Z,9.33
2019-01-04T00:51:06.532Z,9.40
2019-01-04T00:54:12.197Z,9.33
2019-01-04T00:57:41.680Z,7.73
2019-01-04T01:01:14.739Z,9.23
2019-01-04T01:05:14.436Z,5.87
2019-01-04T01:08:59.369Z,8.90
2019-01-04T01:12:45.057Z,8.97
2019-01-04T01:16:23.893Z,8.03
2019-01-04T01:19:58.770Z,7.60
2019-01-04T01:24:03.929Z,5.07
2019-01-04T01:27:55.081Z,7.37
2019-01-04T01:31:52.710Z,6.00
2019-01-04T01:35:47.109Z,6.80
2019-01-04T01:39:38.774Z,6.47
2019-01-04T01:43:12.009Z,5.47
2019-01-04T01:46:35.444Z,5.37
2019-01-04T01:50:40.036Z,6.97
2019-01-04T01:53:46.982Z,10.77
2019-01-04T01:56:52.607Z,6.37
2019-01-04T01:59:58.273Z,7.37
2019-01-04T02:03:03.874Z,8.57
2019-01-04T02:06:09.468Z,7.63
2019-01-04T02:09:15.091Z,7.90
2019-01-04T02:12:20.692Z,6.30
2019-01-04T02:15:26.436Z,9.30
2019-01-04T02:18:32.072Z,9.93
2019-01-04T02:21:37.955Z,7.37
2019-01-04T02:24:43.599Z,7.73
2019-01-04T02:27:49.215Z,7.10
2019-01-04T02:30:54.822Z,6.97
2019-01-04T02:34:00.401Z,6.57
2019-01-04T02:37:06.012Z,9.33
2019-01-04T02:40:11.649Z,7.10
2019-01-04T02:43:17.299Z,7.10
2019-01-04T02:46:22.893Z,8.50
2019-01-04T02:49:28.512Z,5.87
2019-01-04T02:52:35.094Z,6.90
2019-01-04T02:55:40.722Z,5.77
2019-01-04T02:58:46.370Z,7.97
2019-01-04T03:01:52.032Z,5.27
2019-01-04T03:04:57.676Z,6.07
2019-01-04T03:08:03.259Z,9.97
2019-01-04T03:11:08.880Z,5.90
2019-01-04T03:14:14.462Z,7.47
2019-01-04T03:17:20.082Z,8.57
2019-01-04T03:20:25.689Z,6.07
2019-01-04T03:23:31.356Z,9.17
2019-01-04T03:26:36.997Z,7.03
2019-01-04T03:29:42.616Z,6.73
2019-01-04T03:32:48.235Z,6.93
2019-01-04T03:35:53.848Z,5.90
2019-01-04T03:38:59.477Z,6.97
2019-01-04T03:42:05.138Z,11.57
2019-01-04T03:45:10.884Z,7.13
2019-01-04T03:48:16.500Z,6.87
2019-01-04T03:51:22.119Z,7.50
2019-01-04T03:54:27.712Z,5.97
2019-01-04T03:57:33.404Z,8.17
2019-01-04T04:00:39.013Z,7.27
2019-01-04T04:03:44.618Z,7.97
2019-01-04T04:06:50.252Z,6.83
2019-01-04T04:09:55.953Z,7.53
2019-01-04T04:13:01.602Z,5.50
2019-01-04T04:16:07.232Z,5.23
2019-01-04T04:19:12.880Z,8.30
2019-01-04T04:22:18.534Z,8.23
2019-01-04T04:25:24.119Z,7.37
2019-01-04T04:28:29.697Z,7.97
2019-01-04T04:31:35.343Z,8.20
2019-01-04T04:34:40.941Z,7.60
2019-01-04T04:37:46.566Z,6.53
2019-01-04T04:40:52.176Z,7.10
2019-01-04T04:43:57.828Z,5.60
2019-01-04T04:47:03.482Z,7.00
2019-01-04T04:50:09.212Z,5.03
2019-01-04T04:53:14.879Z,6.87
2019-01-04T04:56:20.484Z,6.27
2019-01-04T04:59:26.106Z,7.03
2019-01-04T05:02:31.707Z,7.17
2019-01-04T05:05:37.296Z,7.73
2019-01-04T05:08:42.944Z,7.00
2019-01-04T05:11:48.564Z,8.23
2019-01-04T05:14:54.181Z,6.23
2019-01-04T05:17:59.798Z,7.13
2019-01-04T05:21:05.379Z,9.57
2019-01-04T05:24:10.978Z,6.67
2019-01-04T05:27:16.583Z,7.73
2019-01-04T05:30:22.191Z,6.67
2019-01-04T05:33:27.866Z,6.77
2019-01-04T05:36:33.503Z,9.23
2019-01-04T05:39:39.170Z,6.70
2019-01-04T05:42:44.810Z,8.03
2019-01-04T05:45:50.428Z,7.53
2019-01-04T05:48:56.059Z,7.50
2019-01-04T05:52:01.654Z,8.83
2019-01-04T05:55:07.659Z,8.77
2019-01-04T05:58:13.281Z,5.80
2019-01-04T06:01:18.851Z,8.13
2019-01-04T06:04:24.473Z,10.37
2019-01-04T06:07:30.102Z,7.23
2019-01-04T06:10:35.700Z,9.17
2019-01-04T06:13:41.339Z,10.87
2019-01-04T06:16:46.980Z,6.40
2019-01-04T06:19:52.667Z,10.43
2019-01-04T06:22:58.319Z,14.43
2019-01-04T06:26:03.942Z,19.17
2019-01-04T06:29:09.608Z,21.20
2019-01-04T06:32:15.215Z,25.47
2019-01-04T06:35:20.890Z,23.63
2019-01-04T06:38:26.647Z,20.97
2019-01-04T06:41:32.274Z,16.70
2019-01-04T06:44:37.903Z,14.67
2019-01-04T06:47:44.834Z,9.80
2019-01-04T06:50:50.429Z,8.60
2019-01-04T06:53:56.025Z,10.40
2019-01-04T06:57:01.607Z,11.43
2019-01-04T07:00:07.357Z,9.90
2019-01-04T07:03:13.237Z,14.53
2019-01-04T07:06:18.864Z,13.07
2019-01-04T07:09:24.492Z,15.23
2019-01-04T07:12:30.082Z,9.00
2019-01-04T07:15:35.711Z,12.70
2019-01-04T07:18:41.422Z,11.00
2019-01-04T07:21:47.023Z,11.87
2019-01-04T07:24:52.653Z,16.97
2019-01-04T07:27:58.277Z,12.77
2019-01-04T07:31:04.039Z,9.70
2019-01-04T07:34:09.671Z,11.40
2019-01-04T07:37:15.332Z,13.70
2019-01-04T07:40:21.083Z,12.27
2019-01-04T07:43:26.782Z,8.80
2019-01-04T07:46:32.424Z,22.83
2019-01-04T07:49:38.098Z,12.17
2019-01-04T07:52:43.820Z,11.43
2019-01-04T07:55:49.424Z,13.83
2019-01-04T07:58:55.036Z,14.10
2019-01-04T08:02:00.659Z,23.43
2019-01-04T08:05:07.904Z,15.00
2019-01-04T08:08:14.454Z,13.00
2019-01-04T08:11:20.079Z,16.03
2019-01-04T08:14:25.675Z,14.00
2019-01-04T08:17:31.285Z,9.37
2019-01-04T08:20:36.954Z,9.70
2019-01-04T08:23:43.566Z,11.63
2019-01-04T08:26:49.301Z,10.27
2019-01-04T08:29:54.901Z,16.97
2019-01-04T08:33:00.524Z,11.57
2019-01-04T08:36:06.117Z,15.63
2019-01-04T08:39:11.717Z,11.30
2019-01-04T08:42:17.337Z,11.97
2019-01-04T08:45:22.976Z,11.80
2019-01-04T08:48:28.587Z,15.83
2019-01-04T08:51:34.204Z,13.03
2019-01-04T08:54:39.861Z,12.43
2019-01-04T08:57:45.520Z,9.67
2019-01-04T09:00:51.157Z,13.77
2019-01-04T09:03:56.796Z,12.47
2019-01-04T09:07:02.503Z,13.73
2019-01-04T09:10:09.311Z,14.87
2019-01-04T09:13:14.961Z,15.73
2019-01-04T09:16:20.661Z,7.80
2019-01-04T09:19:26.292Z,7.97
2019-01-04T09:22:31.930Z,11.17
2019-01-04T09:25:37.537Z,13.77
2019-01-04T09:28:43.143Z,13.20
2019-01-04T09:31:48.740Z,8.73
2019-01-04T09:34:54.343Z,9.20
2019-01-04T09:37:59.967Z,27.73
2019-01-04T09:41:37.649Z,10.60
2019-01-04T09:44:44.398Z,11.13
2019-01-04T09:47:50.009Z,7.57
2019-01-04T09:50:55.615Z,8.73
2019-01-04T09:54:01.223Z,9.40
2019-01-04T09:57:06.805Z,7.00
2019-01-04T10:00:14.137Z,10.73
2019-01-04T10:03:19.764Z,10.60
2019-01-04T10:06:25.390Z,7.57
2019-01-04T10:09:31.033Z,9.87
2019-01-04T10:12:36.675Z,11.70
2019-01-04T10:15:42.340Z,9.43
2019-01-04T10:18:47.995Z,9.27
2019-01-04T10:21:53.616Z,8.90
2019-01-04T10:24:59.247Z,18.90
2019-01-04T10:28:05.023Z,11.47
2019-01-04T10:31:10.667Z,11.10
2019-01-04T10:34:16.270Z,13.03
2019-01-04T10:37:21.863Z,12.17
2019-01-04T10:40:27.487Z,13.47
2019-01-04T10:43:33.183Z,17.83
2019-01-04T10:46:38.788Z,23.37
2019-01-04T10:49:44.432Z,19.17
2019-01-04T10:52:50.052Z,22.00
2019-01-04T10:55:55.634Z,18.67
2019-01-04T10:59:01.264Z,17.97
2019-01-04T11:02:06.882Z,11.63
2019-01-04T11:05:12.543Z,11.23
2019-01-04T11:08:18.190Z,10.90
2019-01-04T11:11:23.838Z,12.70
2019-01-04T11:14:29.455Z,13.67
2019-01-04T11:17:35.063Z,16.80
2019-01-04T11:20:48.470Z,12.20
2019-01-04T11:24:17.449Z,13.13
2019-01-04T11:27:37.734Z,24.93
2019-01-04T11:31:10.006Z,14.67
2019-01-04T11:34:41.748Z,12.47
2019-01-04T11:38:11.262Z,11.47
2019-01-04T11:42:12.947Z,11.17
2019-01-04T11:45:59.409Z,12.83
2019-01-04T11:49:26.465Z,12.30
2019-01-04T11:52:54.683Z,12.80
2019-01-04T11:56:00.322Z,12.63
2019-01-04T11:59:06.029Z,15.30
2019-01-04T12:02:11.651Z,12.40
2019-01-04T12:05:18.027Z,42.77
2019-01-04T12:08:23.705Z,17.00
2019-01-04T12:11:29.318Z,19.00
2019-01-04T12:14:35.012Z,24.50
2019-01-04T12:17:40.668Z,16.37
2019-01-04T12:20:46.323Z,16.67
2019-01-04T12:23:51.950Z,39.60
2019-01-04T12:26:57.553Z,14.13
2019-01-04T12:30:03.204Z,12.37
2019-01-04T12:33:08.890Z,15.13
2019-01-04T12:36:14.535Z,26.80
2019-01-04T12:39:20.166Z,25.70
2019-01-04T12:42:25.826Z,12.17
2019-01-04T12:45:31.488Z,18.43
2019-01-04T12:48:37.136Z,13.43
2019-01-04T12:51:42.786Z,17.07
2019-01-04T12:54:48.412Z,16.17
2019-01-04T12:57:54.035Z,35.87
2019-01-04T13:00:59.814Z,12.67
2019-01-04T13:04:05.759Z,18.10
2019-01-04T13:07:12.488Z,17.00
2019-01-04T13:10:18.119Z,10.27
2019-01-04T13:13:23.691Z,5.20
2019-01-04T13:16:29.335Z,9.87
2019-01-04T13:19:34.934Z,11.73
2019-01-04T13:22:40.525Z,8.60
2019-01-04T13:25:46.163Z,18.43
2019-01-04T13:28:51.777Z,26.53
2019-01-04T13:31:57.479Z,27.70
2019-01-04T13:35:03.134Z,18.33
2019-01-04T13:38:08.803Z,33.97
2019-01-04T13:41:14.468Z,35.20
2019-01-04T13:44:20.061Z,16.63
2019-01-04T13:47:32.052Z,21.00
2019-01-04T13:50:33.015Z,35.63
2019-01-04T13:53:38.621Z,33.80
2019-01-04T13:56:45.042Z,10.47
2019-01-04T13:59:50.644Z,13.50
2019-01-04T14:02:56.323Z,10.37
2019-01-04T14:06:01.969Z,13.93
2019-01-04T14:09:08.695Z,11.30
2019-01-04T14:12:14.349Z,13.97
2019-01-04T14:15:19.979Z,22.17
2019-01-04T14:18:25.609Z,39.00
2019-01-04T14:21:31.194Z,22.97
2019-01-04T14:24:36.852Z,74.80
2019-01-04T14:27:42.482Z,31.47
2019-01-04T14:30:48.116Z,33.40
2019-01-04T14:33:53.747Z,48.77
2019-01-04T14:36:59.398Z,30.53
2019-01-04T14:40:24.078Z,23.67
2019-01-04T14:43:29.682Z,15.70
2019-01-04T14:46:35.306Z,20.97
2019-01-04T14:49:40.948Z,29.17
2019-01-04T14:52:46.616Z,21.80
2019-01-04T14:55:52.234Z,10.27
2019-01-04T14:58:57.938Z,22.00
2019-01-04T15:02:03.581Z,23.57
2019-01-04T15:05:09.368Z,27.90
2019-01-04T15:08:14.951Z,43.60
2019-01-04T15:11:20.603Z,24.80
2019-01-04T15:14:26.286Z,37.00
2019-01-04T15:17:31.928Z,26.80
2019-01-04T15:20:37.560Z,39.97
2019-01-04T15:23:43.217Z,22.33
2019-01-04T15:26:48.890Z,17.07
2019-01-04T15:29:54.587Z,17.00
2019-01-04T15:33:00.246Z,20.73
2019-01-04T15:36:05.969Z,38.93
2019-01-04T15:39:11.700Z,30.10
2019-01-04T15:42:17.314Z,73.17
2019-01-04T15:45:22.928Z,26.73
2019-01-04T15:48:28.551Z,38.43
2019-01-04T15:51:34.148Z,76.83
2019-01-04T15:54:41.180Z,26.17
2019-01-04T15:57:46.827Z,31.23
2019-01-04T16:01:03.684Z,26.80
2019-01-04T16:04:11.001Z,38.53
2019-01-04T16:07:16.649Z,40.47
2019-01-04T16:10:22.276Z,43.97
2019-01-04T16:13:27.926Z,49.27
2019-01-04T16:16:33.668Z,68.93
2019-01-04T16:19:39.368Z,81.53
2019-01-04T16:22:45.071Z,88.33
2019-01-04T16:25:50.667Z,71.03
2019-01-04T16:28:56.310Z,81.47
2019-01-04T16:32:01.917Z,67.27
2019-01-04T16:35:07.570Z,74.93
2019-01-04T16:38:13.193Z,97.63
2019-01-04T16:41:19.105Z,83.83
2019-01-04T16:44:24.766Z,97.97
2019-01-04T16:48:12.436Z,97.67
2019-01-04T16:51:38.546Z,68.23
2019-01-04T16:54:44.182Z,48.43
2019-01-04T16:57:49.855Z,48.60
2019-01-04T17:00:55.525Z,46.00
2019-01-04T17:04:01.180Z,49.60
2019-01-04T17:07:06.809Z,54.73
2019-01-04T17:10:12.970Z,55.80
2019-01-04T17:13:18.604Z,58.60
2019-01-04T17:16:24.191Z,71.10
2019-01-04T17:19:29.800Z,72.53
2019-01-04T17:22:35.451Z,79.73
2019-01-04T17:25:41.203Z,79.80
2019-01-04T17:28:47.789Z,76.77
2019-01-04T17:32:55.590Z,77.33
2019-01-04T17:36:10.770Z,68.07
2019-01-04T17:39:17.207Z,70.20
2019-01-04T17:42:22.820Z,74.93
2019-01-04T17:45:28.424Z,63.13
2019-01-04T17:48:34.089Z,74.10
2019-01-04T17:51:39.810Z,46.13
2019-01-04T17:54:46.565Z,42.20
2019-01-04T17:57:52.257Z,48.20
2019-01-04T18:00:57.901Z,50.43
2019-01-04T18:04:04.914Z,51.03
2019-01-04T18:07:10.569Z,54.30
2019-01-04T18:10:16.228Z,49.97
2019-01-04T18:13:21.921Z,49.67
2019-01-04T18:16:28.555Z,53.50
2019-01-04T18:19:34.237Z,54.13
2019-01-04T18:22:40.909Z,68.77
2019-01-04T18:25:46.543Z,66.53
2019-01-04T18:28:52.185Z,64.13
2019-01-04T18:31:57.780Z,54.60
2019-01-04T18:35:03.522Z,59.77
2019-01-04T18:38:09.128Z,72.90
2019-01-04T18:41:14.725Z,69.93
2019-01-04T18:44:20.358Z,64.83
2019-01-04T18:47:26.071Z,79.57
2019-01-04T18:50:32.243Z,86.73
2019-01-04T18:53:37.891Z,78.43
2019-01-04T18:56:43.564Z,74.00
2019-01-04T18:59:51.704Z,86.27
2019-01-04T19:02:57.339Z,81.57
2019-01-04T19:06:02.957Z,67.93
2019-01-04T19:09:09.604Z,73.87
2019-01-04T19:12:15.219Z,65.67
2019-01-04T19:15:20.860Z,76.23
2019-01-04T19:18:27.637Z,82.63
2019-01-04T19:21:33.299Z,71.37
2019-01-04T19:24:38.980Z,60.47
2019-01-04T19:27:44.607Z,67.43
2019-01-04T19:30:50.236Z,67.77
2019-01-04T19:33:56.160Z,50.67
2019-01-04T19:37:01.818Z,51.13
2019-01-04T19:40:08.044Z,38.37
2019-01-04T19:43:13.824Z,41.73
2019-01-04T19:46:19.475Z,43.60
2019-01-04T19:49:25.206Z,40.93
2019-01-04T19:52:30.811Z,42.50
2019-01-04T19:55:36.593Z,31.17
2019-01-04T19:58:42.191Z,30.97
2019-01-04T20:01:47.841Z,31.47
2019-01-04T20:04:53.560Z,27.10
2019-01-04T20:08:53.661Z,26.20
2019-01-04T20:13:07.532Z,27.20
2019-01-04T20:16:42.014Z,41.67
2019-01-04T20:20:10.197Z,26.40
2019-01-04T20:23:37.484Z,27.67
2019-01-04T20:27:01.949Z,22.80
2019-01-04T20:30:25.517Z,19.97
2019-01-04T20:33:48.677Z,22.60
2019-01-04T20:37:11.981Z,20.07
2019-01-04T20:40:54.881Z,19.30
2019-01-04T20:44:18.220Z,16.73
2019-01-04T20:48:00.890Z,17.73
2019-01-04T20:51:43.645Z,17.67
2019-01-04T20:55:07.212Z,14.30
2019-01-04T20:58:44.247Z,16.97
2019-01-04T21:02:11.918Z,22.97
2019-01-04T21:05:28.605Z,19.50
2019-01-04T21:08:51.951Z,27.37
2019-01-04T21:12:34.767Z,24.83
2019-01-04T21:16:03.014Z,20.93
2019-01-04T21:19:26.109Z,28.23
2019-01-04T21:22:59.404Z,14.97
2019-01-04T21:26:35.926Z,19.63
2019-01-04T21:29:51.825Z,14.97
2019-01-04T21:33:28.454Z,44.73
2019-01-04T21:36:51.551Z,35.97
2019-01-04T21:40:21.876Z,26.00
2019-01-04T21:43:49.548Z,26.53
2019-01-04T21:47:23.010Z,22.50
2019-01-04T21:50:47.532Z,19.53
2019-01-04T21:54:16.484Z,28.30
2019-01-04T21:57:43.831Z,25.20
2019-01-04T22:01:14.420Z,24.87
2019-01-04T22:04:41.806Z,16.70
2019-01-04T22:08:12.454Z,33.00
2019-01-04T22:11:55.301Z,37.70
2019-01-04T22:15:26.551Z,43.30
2019-01-04T22:18:49.826Z,27.57
2019-01-04T22:22:13.000Z,26.73
2019-01-04T22:25:37.513Z,20.43
2019-01-04T22:29:02.032Z,36.13
2019-01-04T22:32:35.688Z,24.83
2019-01-04T22:35:53.140Z,38.57
2019-01-04T22:39:16.748Z,28.93
2019-01-04T22:42:40.338Z,22.97
2019-01-04T22:46:16.940Z,31.17
2019-01-04T22:49:40.259Z,22.27
2019-01-04T22:53:10.184Z,27.07
2019-01-04T22:56:38.472Z,21.87
2019-01-04T23:00:01.708Z,18.10
2019-01-04T23:03:26.620Z,29.13
2019-01-04T23:06:59.202Z,14.73
2019-01-04T23:10:42.873Z,19.67
2019-01-04T23:14:06.005Z,34.17
2019-01-04T23:17:33.961Z,17.47
2019-01-04T23:20:58.400Z,16.80
2019-01-04T23:24:31.877Z,18.00
2019-01-04T23:28:02.292Z,19.87
2019-01-04T23:31:22.756Z,19.80
2019-01-04T23:35:05.510Z,30.00
2019-01-04T23:38:26.428Z,19.37
2019-01-04T23:41:53.695Z,35.00
2019-01-04T23:45:17.138Z,21.23
2019-01-04T23:48:50.669Z,34.17
2019-01-04T23:52:13.894Z,18.23
2019-01-04T23:55:47.324Z,29.47
2019-01-04T23:59:20.796Z,22.60
